Time;durP1;ratioP1;P1;durP2;ratioP2;P2;SDS_P1;SDS_P2;PMS_P1;PMS_P2;Temp;Humidity;BMP_temperature;BMP_pressure;BME280_temperature;BME280_humidity;BME280_pressure;Samples;Min_cycle;Max_cycle;Signal;HPM_P1;HPM_P2
2023/10/02 00:01:24;;;;;;;16.75;8.77;;;;;;;-148.88;100.00;-17125.47;5034097;28;20022;-85
2023/10/02 00:04:16;;;;;;;16.42;10.07;;;;;;;-148.88;100.00;-17125.47;5032841;28;20064;-84
2023/10/02 00:06:36;;;;;;;16.70;9.48;;;;;;;-148.88;100.00;-17125.47;5033789;28;20064;-85
2023/10/02 00:09:04;;;;;;;16.17;9.02;;;;;;;-148.88;100.00;-17125.47;5033904;28;20061;-85
2023/10/02 00:11:37;;;;;;;14.43;8.38;;;;;;;-148.88;100.00;-17125.47;5032202;28;20040;-86
2023/10/02 00:14:18;;;;;;;18.15;9.80;;;;;;;-148.88;100.00;-17125.47;5032673;28;20021;-85
2023/10/02 00:17:05;;;;;;;16.88;9.25;;;;;;;-148.88;100.00;-17125.47;5032889;28;20033;-87
2023/10/02 00:19:49;;;;;;;16.85;9.45;;;;;;;-148.88;100.00;-17125.47;5032554;28;20017;-86
2023/10/02 00:25:16;;;;;;;18.65;10.25;;;;;;;-148.88;100.00;-17125.47;5034608;28;19916;-87
2023/10/02 00:27:43;;;;;;;15.43;9.35;;;;;;;-148.88;100.00;-17125.47;5033408;28;20520;-87
2023/10/02 00:30:13;;;;;;;16.88;8.95;;;;;;;-148.88;100.00;-17125.47;5033265;28;20401;-84
2023/10/02 00:32:41;;;;;;;17.45;9.90;;;;;;;-148.88;100.00;-17125.47;5032845;28;20031;-86
2023/10/02 00:35:10;;;;;;;15.77;9.07;;;;;;;-148.88;100.00;-17125.47;5032135;28;20039;-85
2023/10/02 00:37:46;;;;;;;16.63;9.32;;;;;;;-148.88;100.00;-17125.47;5032579;28;20029;-85
2023/10/02 00:40:30;;;;;;;15.55;9.27;;;;;;;-148.88;100.00;-17125.47;5032266;28;20026;-85
2023/10/02 00:42:58;;;;;;;15.48;8.93;;;;;;;-148.88;100.00;-17125.47;5032139;28;20037;-86
2023/10/02 00:45:38;;;;;;;16.17;10.15;;;;;;;-148.88;100.00;-17125.47;5032097;28;20045;-86
2023/10/02 00:48:25;;;;;;;15.98;9.25;;;;;;;-148.88;100.00;-17125.47;5032159;28;20053;-86
2023/10/02 00:50:54;;;;;;;17.23;9.65;;;;;;;-148.88;100.00;-17125.47;5032279;28;20025;-84
2023/10/02 00:53:39;;;;;;;17.48;9.32;;;;;;;-148.88;100.00;-17125.47;5032159;28;20486;-86
2023/10/02 00:56:19;;;;;;;17.45;9.07;;;;;;;-148.88;100.00;-17125.47;5031895;28;20401;-85
2023/10/02 00:59:00;;;;;;;17.05;9.65;;;;;;;-148.88;100.00;-17125.47;5032007;28;20025;-85
2023/10/02 01:01:31;;;;;;;18.15;8.60;;;;;;;-148.88;100.00;-17125.47;5033386;28;20021;-85
2023/10/02 01:04:24;;;;;;;15.15;8.68;;;;;;;-148.88;100.00;-17125.47;5031854;28;20441;-85
2023/10/02 01:06:54;;;;;;;16.90;8.98;;;;;;;-148.88;100.00;-17125.47;5031967;28;20025;-83
2023/10/02 01:09:26;;;;;;;14.48;8.73;;;;;;;-148.88;100.00;-17125.47;5033392;28;20059;-86
2023/10/02 01:11:53;;;;;;;16.98;9.13;;;;;;;-148.88;100.00;-17125.47;5032099;28;20490;-85
2023/10/02 01:14:40;;;;;;;16.23;9.23;;;;;;;-148.88;100.00;-17125.47;5031797;28;20052;-86
2023/10/02 01:17:07;;;;;;;16.13;9.85;;;;;;;-148.88;100.00;-17125.47;5032845;28;20037;-86
2023/10/02 01:19:52;;;;;;;15.95;9.15;;;;;;;-148.88;100.00;-17125.47;5031753;28;20025;-86
2023/10/02 01:22:27;;;;;;;15.60;8.65;;;;;;;-148.88;100.00;-17125.47;5032674;28;20107;-85
2023/10/02 01:25:12;;;;;;;17.13;9.60;;;;;;;-148.88;100.00;-17125.47;5036059;28;20386;-85
2023/10/02 01:27:41;;;;;;;15.30;9.18;;;;;;;-148.88;100.00;-17125.47;5035793;28;20115;-85
2023/10/02 01:30:16;;;;;;;16.23;9.70;;;;;;;-148.88;100.00;-17125.47;5036994;28;20029;-85
2023/10/02 01:35:48;;;;;;;15.75;9.38;;;;;;;-148.88;100.00;-17125.47;5036888;28;20032;-85
2023/10/02 01:38:37;;;;;;;17.40;9.23;;;;;;;-148.88;100.00;-17125.47;5037012;28;20088;-85
2023/10/02 01:41:06;;;;;;;13.73;8.27;;;;;;;-148.88;100.00;-17125.47;5035302;28;20026;-85
2023/10/02 01:43:44;;;;;;;13.52;8.63;;;;;;;-148.88;100.00;-17125.47;5035558;28;20075;-86
2023/10/02 01:46:17;;;;;;;16.73;9.23;;;;;;;-148.88;100.00;-17125.47;5036529;28;20053;-84
2023/10/02 01:48:48;;;;;;;18.25;9.57;;;;;;;-148.88;100.00;-17125.47;5035323;28;20401;-85
2023/10/02 01:51:21;;;;;;;16.52;8.73;;;;;;;-148.88;100.00;-17125.47;5035051;28;20033;-85
2023/10/02 01:54:04;;;;;;;22.07;9.93;;;;;;;-148.88;100.00;-17125.47;5035146;28;20044;-86
2023/10/02 01:56:31;;;;;;;17.50;10.27;;;;;;;-148.88;100.00;-17125.47;5034997;28;20026;-85
2023/10/02 01:59:19;;;;;;;16.42;9.15;;;;;;;-148.88;100.00;-17125.47;5035246;28;20080;-86
2023/10/02 02:01:51;;;;;;;17.73;9.90;;;;;;;-148.88;100.00;-17125.47;5036450;28;20549;-85
2023/10/02 02:04:20;;;;;;;18.13;9.47;;;;;;;-148.88;100.00;-17125.47;5035195;28;20029;-85
2023/10/02 02:06:53;;;;;;;16.85;9.05;;;;;;;-148.88;100.00;-17125.47;5035001;28;20279;-85
2023/10/02 02:09:23;;;;;;;17.70;9.23;;;;;;;-148.88;100.00;-17125.47;5034971;28;20118;-85
2023/10/02 02:12:08;;;;;;;17.58;9.65;;;;;;;-148.88;100.00;-17125.47;5035597;28;20091;-85
2023/10/02 02:14:40;;;;;;;18.88;10.25;;;;;;;-148.88;100.00;-17125.47;5036081;28;20482;-85
2023/10/02 02:17:12;;;;;;;18.43;9.07;;;;;;;-148.88;100.00;-17125.47;5034843;28;20120;-85
2023/10/02 02:19:44;;;;;;;16.17;9.00;;;;;;;-148.88;100.00;-17125.47;5034787;28;20286;-85
2023/10/02 02:22:10;;;;;;;14.77;9.50;;;;;;;-148.88;100.00;-17125.47;5034741;28;20052;-83
2023/10/02 02:24:38;;;;;;;16.45;9.93;;;;;;;-148.88;100.00;-17125.47;5034096;28;20072;-85
2023/10/02 02:27:06;;;;;;;16.02;10.10;;;;;;;-148.88;100.00;-17125.47;5034316;28;20031;-86
2023/10/02 02:29:33;;;;;;;17.30;10.10;;;;;;;-148.88;100.00;-17125.47;5034161;28;20025;-85
2023/10/02 02:31:59;;;;;;;17.23;10.48;;;;;;;-148.88;100.00;-17125.47;5034371;28;20040;-86
2023/10/02 02:34:25;;;;;;;18.35;10.55;;;;;;;-148.88;100.00;-17125.47;5033216;28;20124;-85
2023/10/02 02:36:50;;;;;;;18.90;9.65;;;;;;;-148.88;100.00;-17125.47;5034050;28;20052;-86
2023/10/02 02:39:21;;;;;;;20.17;10.05;;;;;;;-148.88;100.00;-17125.47;5035450;28;20104;-85
2023/10/02 02:44:56;;;;;;;17.67;10.32;;;;;;;-148.88;100.00;-17125.47;5002085;28;20034;-85
2023/10/02 02:47:21;;;;;;;16.92;9.38;;;;;;;-148.88;100.00;-17125.47;5034099;28;20091;-86
2023/10/02 02:49:51;;;;;;;16.75;9.32;;;;;;;-148.88;100.00;-17125.47;5033677;28;20028;-85
2023/10/02 02:52:26;;;;;;;16.83;9.50;;;;;;;-148.88;100.00;-17125.47;5033806;28;20547;-85
2023/10/02 02:55:12;;;;;;;17.23;9.70;;;;;;;-148.88;100.00;-17125.47;5033503;28;20040;-85
2023/10/02 02:57:39;;;;;;;16.58;9.27;;;;;;;-148.88;100.00;-17125.47;5033685;28;20025;-86
2023/10/02 03:02:52;;;;;;;15.68;9.68;;;;;;;-148.88;100.00;-17125.47;5035087;28;20509;-85
2023/10/02 03:05:22;;;;;;;16.88;9.75;;;;;;;-148.88;100.00;-17125.47;5033813;28;20036;-85
2023/10/02 03:07:56;;;;;;;17.88;9.45;;;;;;;-148.88;100.00;-17125.47;5033600;28;20053;-86
2023/10/02 03:10:23;;;;;;;16.95;9.90;;;;;;;-148.88;100.00;-17125.47;5033675;28;20033;-85
2023/10/02 03:12:48;;;;;;;17.20;9.88;;;;;;;-148.88;100.00;-17125.47;5033732;28;20540;-86
2023/10/02 03:18:30;;;;;;;15.05;9.48;;;;;;;-148.88;100.00;-17125.47;5034969;28;20044;-85
2023/10/02 03:21:05;;;;;;;17.88;10.27;;;;;;;-148.88;100.00;-17125.47;5033275;28;20121;-87
2023/10/02 03:23:30;;;;;;;17.42;10.15;;;;;;;-148.88;100.00;-17125.47;5033137;28;20056;-85
2023/10/02 03:25:56;;;;;;;18.30;9.95;;;;;;;-148.88;100.00;-17125.47;5032799;28;20115;-85
2023/10/02 03:28:31;;;;;;;17.30;9.90;;;;;;;-148.88;100.00;-17125.47;5033199;28;20068;-85
2023/10/02 03:30:58;;;;;;;15.27;9.65;;;;;;;-148.88;100.00;-17125.47;5033370;28;20044;-85
2023/10/02 03:33:25;;;;;;;19.25;11.35;;;;;;;-148.88;100.00;-17125.47;5033327;28;20026;-85
2023/10/02 03:35:58;;;;;;;19.42;10.93;;;;;;;-148.88;100.00;-17125.47;5032838;28;20037;-86
2023/10/02 03:38:33;;;;;;;16.55;10.18;;;;;;;-148.88;100.00;-17125.47;5033232;28;20018;-86
2023/10/02 03:41:01;;;;;;;16.73;9.93;;;;;;;-148.88;100.00;-17125.47;5032969;28;20018;-85
2023/10/02 03:43:43;;;;;;;18.65;10.80;;;;;;;-148.88;100.00;-17125.47;5032970;28;20039;-85
2023/10/02 03:46:14;;;;;;;17.33;10.32;;;;;;;-148.88;100.00;-17125.47;5032474;28;20029;-85
2023/10/02 03:48:40;;;;;;;18.30;10.32;;;;;;;-148.88;100.00;-17125.47;5032575;28;20486;-86
2023/10/02 03:51:09;;;;;;;18.63;10.68;;;;;;;-148.88;100.00;-17125.47;5032597;28;20497;-86
2023/10/02 03:53:37;;;;;;;19.85;9.82;;;;;;;-148.88;100.00;-17125.47;5033944;28;20158;-86
2023/10/02 03:58:52;;;;;;;19.70;10.80;;;;;;;-148.88;100.00;-17125.47;5039228;28;20032;-87
2023/10/02 04:01:30;;;;;;;17.25;10.40;;;;;;;-148.88;100.00;-17125.47;5037947;28;20021;-86
2023/10/02 04:04:18;;;;;;;16.80;10.73;;;;;;;-148.88;100.00;-17125.47;5037063;28;20079;-87
2023/10/02 04:06:42;;;;;;;17.15;9.93;;;;;;;-148.88;100.00;-17125.47;5038654;28;20025;-87
2023/10/02 04:11:45;;;;;;;18.23;10.90;;;;;;;-148.88;100.00;-17125.47;5037988;28;20398;-86
2023/10/02 04:14:17;;;;;;;20.33;10.73;;;;;;;-148.88;100.00;-17125.47;5036207;28;20587;-86
2023/10/02 04:16:59;;;;;;;17.92;10.45;;;;;;;-148.88;100.00;-17125.47;5033596;28;20028;-85
2023/10/02 04:19:25;;;;;;;15.85;9.82;;;;;;;-148.88;100.00;-17125.47;5033579;28;20394;-86
2023/10/02 04:21:56;;;;;;;16.55;9.55;;;;;;;-148.88;100.00;-17125.47;5032732;28;20024;-86
2023/10/02 04:24:24;;;;;;;18.48;10.40;;;;;;;-148.88;100.00;-17125.47;5033161;28;20030;-86
2023/10/02 04:26:54;;;;;;;16.45;10.27;;;;;;;-148.88;100.00;-17125.47;5034135;28;20022;-86
2023/10/02 04:29:26;;;;;;;20.10;10.52;;;;;;;-148.88;100.00;-17125.47;5033904;28;20033;-86
2023/10/02 04:32:12;;;;;;;18.05;10.43;;;;;;;-148.88;100.00;-17125.47;5032774;28;20053;-85
2023/10/02 04:34:38;;;;;;;18.80;10.70;;;;;;;-148.88;100.00;-17125.47;5032544;28;20504;-87
2023/10/02 04:37:19;;;;;;;20.02;10.43;;;;;;;-148.88;100.00;-17125.47;5032080;28;20434;-85
2023/10/02 04:39:59;;;;;;;20.55;10.85;;;;;;;-148.88;100.00;-17125.47;5031703;28;20029;-86
2023/10/02 04:42:25;;;;;;;19.67;11.10;;;;;;;-148.88;100.00;-17125.47;5032408;28;20421;-86
2023/10/02 04:44:57;;;;;;;20.77;10.75;;;;;;;-148.88;100.00;-17125.47;5032224;28;20379;-86
2023/10/02 04:47:26;;;;;;;19.95;11.43;;;;;;;-148.88;100.00;-17125.47;5033845;28;20444;-86
2023/10/02 04:52:59;;;;;;;19.90;11.13;;;;;;;-148.88;100.00;-17125.47;5002606;28;20057;-85
2023/10/02 04:55:41;;;;;;;20.48;11.15;;;;;;;-148.88;100.00;-17125.47;5031762;28;20485;-86
2023/10/02 04:58:14;;;;;;;18.30;10.07;;;;;;;-148.88;100.00;-17125.47;5031080;28;20025;-85
2023/10/02 05:01:24;;;;;;;20.85;10.95;;;;;;;-148.88;100.00;-17125.47;5031944;28;20021;-85
2023/10/02 05:03:49;;;;;;;19.30;11.10;;;;;;;-148.88;100.00;-17125.47;5030877;28;20104;-85
2023/10/02 05:06:16;;;;;;;20.42;11.23;;;;;;;-148.88;100.00;-17125.47;5031337;28;20058;-85
2023/10/02 05:11:23;;;;;;;18.90;10.93;;;;;;;-148.88;100.00;-17125.47;5033057;28;20035;-85
2023/10/02 05:16:32;;;;;;;20.33;11.20;;;;;;;-148.88;100.00;-17125.47;5033343;28;20112;-85
2023/10/02 05:18:58;;;;;;;21.55;11.52;;;;;;;-148.88;100.00;-17125.47;5031480;28;20507;-84
2023/10/02 05:21:36;;;;;;;17.40;10.13;;;;;;;-148.88;100.00;-17125.47;5031519;28;20108;-85
2023/10/02 05:24:13;;;;;;;18.58;10.65;;;;;;;-148.88;100.00;-17125.47;5031500;28;20032;-84
2023/10/02 05:26:44;;;;;;;17.45;10.18;;;;;;;-148.88;100.00;-17125.47;5031724;28;20474;-85
2023/10/02 05:29:12;;;;;;;17.52;11.07;;;;;;;-148.88;100.00;-17125.47;5031480;28;20049;-83
2023/10/02 05:31:41;;;;;;;18.77;10.93;;;;;;;-148.88;100.00;-17125.47;5031440;28;20032;-86
2023/10/02 05:34:21;;;;;;;18.40;11.13;;;;;;;-148.88;100.00;-17125.47;5031546;28;20374;-86
2023/10/02 05:39:39;;;;;;;20.88;11.23;;;;;;;-148.88;100.00;-17125.47;5033499;28;20218;-85
2023/10/02 05:42:14;;;;;;;16.73;10.23;;;;;;;-148.88;100.00;-17125.47;5032308;28;20025;-85
2023/10/02 05:44:43;;;;;;;19.80;11.07;;;;;;;-148.88;100.00;-17125.47;5033282;28;20385;-84
2023/10/02 05:47:11;;;;;;;18.13;10.52;;;;;;;-148.88;100.00;-17125.47;5032535;28;20393;-82
2023/10/02 05:49:47;;;;;;;21.25;11.48;;;;;;;-148.88;100.00;-17125.47;5032203;28;20075;-86
2023/10/02 05:52:14;;;;;;;19.83;11.45;;;;;;;-148.88;100.00;-17125.47;5031238;28;20041;-85
2023/10/02 05:54:47;;;;;;;20.30;11.52;;;;;;;-148.88;100.00;-17125.47;5031112;28;20131;-85
2023/10/02 05:57:16;;;;;;;19.92;11.07;;;;;;;-148.88;100.00;-17125.47;5031427;28;20021;-85
2023/10/02 05:59:44;;;;;;;17.63;10.95;;;;;;;-148.88;100.00;-17125.47;5033241;28;20397;-86
2023/10/02 06:02:12;;;;;;;19.25;10.93;;;;;;;-148.88;100.00;-17125.47;5031526;28;20017;-82
2023/10/02 06:04:43;;;;;;;17.48;10.68;;;;;;;-148.88;100.00;-17125.47;5031173;28;20026;-86
2023/10/02 06:07:11;;;;;;;20.27;11.20;;;;;;;-148.88;100.00;-17125.47;5031126;28;20029;-84
2023/10/02 06:09:43;;;;;;;21.55;11.55;;;;;;;-148.88;100.00;-17125.47;5032648;28;20033;-86
2023/10/02 06:12:13;;;;;;;19.52;11.52;;;;;;;-148.88;100.00;-17125.47;5034758;28;20022;-83
2023/10/02 06:14:45;;;;;;;18.85;11.45;;;;;;;-148.88;100.00;-17125.47;5034934;28;20021;-85
2023/10/02 06:17:16;;;;;;;17.63;10.38;;;;;;;-148.88;100.00;-17125.47;5034817;28;20032;-84
2023/10/02 06:19:42;;;;;;;18.08;10.90;;;;;;;-148.88;100.00;-17125.47;5034415;28;20018;-85
2023/10/02 06:22:12;;;;;;;20.13;10.55;;;;;;;-148.88;100.00;-17125.47;5034265;28;20044;-83
2023/10/02 06:24:37;;;;;;;22.25;10.98;;;;;;;-148.88;100.00;-17125.47;5034303;28;20021;-86
2023/10/02 06:27:12;;;;;;;20.77;11.77;;;;;;;-148.88;100.00;-17125.47;5034391;28;20032;-86
2023/10/02 06:29:39;;;;;;;19.48;11.75;;;;;;;-148.88;100.00;-17125.47;5034627;28;20059;-85
2023/10/02 06:32:07;;;;;;;20.55;11.30;;;;;;;-148.88;100.00;-17125.47;5034174;28;20033;-85
2023/10/02 06:34:39;;;;;;;18.73;11.32;;;;;;;-148.88;100.00;-17125.47;5033982;28;20029;-86
2023/10/02 06:37:13;;;;;;;17.83;10.68;;;;;;;-148.88;100.00;-17125.47;5035336;28;20386;-86
2023/10/02 06:39:46;;;;;;;17.23;10.35;;;;;;;-148.88;100.00;-17125.47;5034162;28;20032;-85
2023/10/02 06:42:17;;;;;;;21.65;11.77;;;;;;;-148.88;100.00;-17125.47;5034536;28;20100;-84
2023/10/02 06:44:52;;;;;;;20.52;11.05;;;;;;;-148.88;100.00;-17125.47;5033877;28;20029;-86
2023/10/02 06:47:34;;;;;;;18.92;10.90;;;;;;;-148.88;100.00;-17125.47;5034051;28;20017;-87
2023/10/02 06:50:03;;;;;;;23.80;11.52;;;;;;;-148.88;100.00;-17125.47;5033851;28;20037;-86
2023/10/02 06:52:34;;;;;;;20.88;11.55;;;;;;;-148.88;100.00;-17125.47;5033730;28;20104;-85
2023/10/02 06:55:01;;;;;;;18.85;10.93;;;;;;;-148.88;100.00;-17125.47;5033680;28;20025;-86
2023/10/02 06:57:27;;;;;;;19.52;10.90;;;;;;;-148.88;100.00;-17125.47;5033854;28;20087;-86
2023/10/02 06:59:53;;;;;;;20.45;11.30;;;;;;;-148.88;100.00;-17125.47;5033606;28;20117;-86
2023/10/02 07:02:26;;;;;;;18.63;10.82;;;;;;;-148.88;100.00;-17125.47;5033913;28;20389;-86
2023/10/02 07:04:56;;;;;;;18.60;11.38;;;;;;;-148.88;100.00;-17125.47;5033628;28;20096;-85
2023/10/02 07:07:26;;;;;;;20.13;11.00;;;;;;;-148.88;100.00;-17125.47;5033292;28;20021;-85
2023/10/02 07:10:05;;;;;;;20.25;10.88;;;;;;;-148.88;100.00;-17125.47;5033403;28;20033;-86
2023/10/02 07:12:39;;;;;;;18.60;10.73;;;;;;;-148.88;100.00;-17125.47;5033281;28;20060;-86
2023/10/02 07:15:12;;;;;;;19.90;10.40;;;;;;;-148.88;100.00;-17125.47;5033320;28;20396;-85
2023/10/02 07:17:47;;;;;;;;;;;;;;;-148.88;100.00;-17125.47;5034286;28;20025;-85
2023/10/02 07:20:23;;;;;;;19.45;10.00;;;;;;;-148.88;100.00;-17125.47;5032913;28;20007;-87
2023/10/02 07:22:49;;;;;;;19.08;11.00;;;;;;;-148.88;100.00;-17125.47;5033313;28;20021;-86
2023/10/02 07:25:20;;;;;;;18.15;10.82;;;;;;;-148.88;100.00;-17125.47;5032869;28;20370;-86
2023/10/02 07:27:49;;;;;;;19.17;10.27;;;;;;;-148.88;100.00;-17125.47;5032904;28;20025;-85
2023/10/02 07:30:24;;;;;;;17.63;10.68;;;;;;;-148.88;100.00;-17125.47;5033160;28;20052;-85
2023/10/02 07:32:53;;;;;;;17.65;11.20;;;;;;;-148.88;100.00;-17125.47;5033388;28;20056;-86
2023/10/02 07:35:22;;;;;;;19.67;11.13;;;;;;;-148.88;100.00;-17125.47;5033043;28;20567;-86
2023/10/02 07:37:58;;;;;;;16.45;10.07;;;;;;;-148.88;100.00;-17125.47;5032854;28;20024;-86
2023/10/02 07:40:26;;;;;;;17.48;10.52;;;;;;;-148.88;100.00;-17125.47;5033169;28;20033;-86
2023/10/02 07:42:52;;;;;;;19.25;11.15;;;;;;;-148.88;100.00;-17125.47;5033179;28;20021;-86
2023/10/02 07:45:26;;;;;;;18.60;10.35;;;;;;;-148.88;100.00;-17125.47;5032853;28;20059;-86
2023/10/02 07:50:38;;;;;;;;;;;;;;;-148.88;100.00;-17125.47;5035535;28;20052;-86
2023/10/02 07:53:06;;;;;;;19.50;10.82;;;;;;;-148.88;100.00;-17125.47;5032529;28;19913;-86
2023/10/02 07:55:46;;;;;;;17.25;10.23;;;;;;;-148.88;100.00;-17125.47;5051636;23;20045;-76
2023/10/02 07:58:13;;;;;;;18.83;9.82;;;;;;;-148.88;100.00;-17125.47;5032474;28;20025;-76
2023/10/02 08:00:42;;;;;;;19.13;9.82;;;;;;;-148.88;100.00;-17125.47;5032582;28;20037;-76
2023/10/02 08:05:56;;;;;;;18.27;9.98;;;;;;;-148.88;100.00;-17125.47;5034256;28;20168;-77
2023/10/02 08:08:31;;;;;;;17.70;9.95;;;;;;;-148.88;100.00;-17125.47;5034137;28;20025;-76
2023/10/02 08:10:58;;;;;;;17.63;10.07;;;;;;;-148.88;100.00;-17125.47;5034355;28;20026;-76
2023/10/02 08:13:33;;;;;;;16.67;9.77;;;;;;;-148.88;100.00;-17125.47;5033827;28;20018;-76
2023/10/02 08:16:01;;;;;;;19.25;10.00;;;;;;;-148.88;100.00;-17125.47;5033592;28;20129;-76
2023/10/02 08:18:27;;;;;;;17.67;10.02;;;;;;;-148.88;100.00;-17125.47;5032227;28;20029;-76
2023/10/02 08:20:53;;;;;;;16.17;8.82;;;;;;;-148.88;100.00;-17125.47;5032171;28;20033;-76
2023/10/02 08:23:21;;;;;;;17.75;9.68;;;;;;;-148.88;100.00;-17125.47;5033530;28;20064;-76
2023/10/02 08:26:06;;;;;;;16.00;9.75;;;;;;;-148.88;100.00;-17125.47;5033355;28;20025;-76
2023/10/02 08:28:33;;;;;;;17.30;8.90;;;;;;;-148.88;100.00;-17125.47;5033499;28;20393;-76
2023/10/02 08:31:00;;;;;;;17.65;9.18;;;;;;;-148.88;100.00;-17125.47;5032013;28;20060;-77
2023/10/02 08:33:26;;;;;;;17.10;8.63;;;;;;;-148.88;100.00;-17125.47;5032481;28;20021;-77
2023/10/02 08:35:52;;;;;;;17.90;9.07;;;;;;;-148.88;100.00;-17125.47;5033451;28;20508;-77
2023/10/02 08:38:25;;;;;;;13.98;8.32;;;;;;;-148.88;100.00;-17125.47;5033297;28;20100;-77
2023/10/02 08:40:58;;;;;;;17.25;9.10;;;;;;;-148.88;100.00;-17125.47;5033404;28;20523;-76
2023/10/02 08:43:28;;;;;;;15.98;8.65;;;;;;;-148.88;100.00;-17125.47;5031967;28;20022;-77
2023/10/02 08:45:54;;;;;;;14.32;8.63;;;;;;;-148.88;100.00;-17125.47;5033066;28;20458;-76
2023/10/02 08:48:20;;;;;;;15.40;8.32;;;;;;;-148.88;100.00;-17125.47;5031759;28;20049;-76
2023/10/02 08:50:50;;;;;;;17.13;9.52;;;;;;;-148.88;100.00;-17125.47;5031780;28;20021;-76
2023/10/02 08:53:23;;;;;;;15.98;8.98;;;;;;;-148.88;100.00;-17125.47;5031657;28;20108;-76
2023/10/02 08:56:59;;;;;;;15.13;8.53;;;;;;;-148.88;100.00;-17125.47;5033140;28;20040;-76
2023/10/02 08:59:27;;;;;;;16.73;8.35;;;;;;;-148.88;100.00;-17125.47;5025410;28;20628;-77
2023/10/02 09:02:08;;;;;;;17.48;8.88;;;;;;;-148.88;100.00;-17125.47;5032039;28;20067;-77
2023/10/02 09:04:34;;;;;;;16.38;8.85;;;;;;;-148.88;100.00;-17125.47;5032653;28;20025;-77
2023/10/02 09:07:14;;;;;;;17.52;8.63;;;;;;;-148.88;100.00;-17125.47;5034815;28;20032;-77
2023/10/02 09:09:45;;;;;;;15.18;8.77;;;;;;;-148.88;100.00;-17125.47;5036008;28;20116;-77
2023/10/02 09:12:15;;;;;;;16.13;8.60;;;;;;;-148.88;98.95;-17125.47;5034014;28;20101;-77
2023/10/02 09:14:41;;;;;;;16.70;9.18;;;;;;;-148.88;96.87;-17125.47;5033899;28;20022;-77
2023/10/02 09:17:22;;;;;;;17.45;8.45;;;;;;;-148.88;96.99;-17125.47;5033784;28;20025;-77
2023/10/02 09:20:03;;;;;;;16.80;8.20;;;;;;;-148.88;96.98;-17125.47;5031686;28;20042;-77
2023/10/02 09:22:29;;;;;;;16.75;9.07;;;;;;;-148.88;96.71;-17125.47;5033867;28;20024;-77
2023/10/02 09:25:08;;;;;;;17.35;9.07;;;;;;;-148.88;95.62;-17125.47;5034547;28;20104;-77
2023/10/02 09:27:38;;;;;;;16.25;9.10;;;;;;;-148.88;95.94;-17125.47;5034259;28;20401;-77
2023/10/02 09:30:21;;;;;;;16.50;8.55;;;;;;;-148.88;94.38;-17125.47;5032720;28;20028;-77
2023/10/02 09:32:52;;;;;;;19.92;10.10;;;;;;;-148.88;90.16;-17125.47;5033920;28;20449;-77
2023/10/02 09:38:13;;;;;;;18.17;9.57;;;;;;;-148.88;90.50;-17125.47;5033564;28;20433;-77
2023/10/02 09:41:14;;;;;;;16.20;9.32;;;;;;;-148.88;91.87;-17125.47;5033214;28;20025;-77
2023/10/02 09:43:41;;;;;;;17.65;9.55;;;;;;;-148.88;92.78;-17125.47;5034291;28;20489;-77
2023/10/02 09:46:16;;;;;;;16.92;9.10;;;;;;;-148.88;93.00;-17125.47;5036741;28;20022;-77
2023/10/02 09:48:57;;;;;;;15.93;9.00;;;;;;;-148.88;93.82;-17125.47;5035288;28;20033;-78
2023/10/02 09:51:37;;;;;;;18.02;9.23;;;;;;;-148.88;95.44;-17125.47;5035186;28;20588;-77
2023/10/02 09:54:28;;;;;;;17.48;9.07;;;;;;;-148.88;93.65;-17125.47;5036698;28;20036;-77
2023/10/02 09:57:04;;;;;;;18.50;9.15;;;;;;;-148.88;94.11;-17125.47;5036717;28;20025;-77
2023/10/02 09:59:37;;;;;;;16.77;9.35;;;;;;;-148.88;93.08;-17125.47;5037078;28;20097;-77
2023/10/02 10:02:09;;;;;;;16.95;9.30;;;;;;;-148.88;92.38;-17125.47;5037833;28;20431;-77
2023/10/02 10:07:46;;;;;;;17.42;8.30;;;;;;;-148.88;94.37;-17125.47;5037620;28;20053;-77
2023/10/02 10:10:47;;;;;;;17.23;9.18;;;;;;;-148.88;92.46;-17125.47;5036093;28;20581;-77
2023/10/02 10:13:36;;;;;;;17.17;9.13;;;;;;;-148.88;92.95;-17125.47;5036747;28;20028;-77
2023/10/02 10:16:23;;;;;;;17.23;9.25;;;;;;;-148.88;90.44;-17125.47;5036914;28;20033;-77
2023/10/02 10:21:57;;;;;;;17.30;9.07;;;;;;;-148.88;85.54;-17125.47;5036906;28;20059;-77
2023/10/02 10:24:55;;;;;;;17.77;9.23;;;;;;;-148.88;87.03;-17125.47;5037120;28;20053;-77
2023/10/02 10:27:41;;;;;;;16.27;9.30;;;;;;;-148.88;85.52;-17125.47;5036812;28;20029;-77
2023/10/02 10:30:19;;;;;;;18.15;9.20;;;;;;;-148.88;84.21;-17125.47;5036911;28;20116;-77
2023/10/02 10:32:45;;;;;;;16.75;9.07;;;;;;;-148.88;83.98;-17125.47;5035084;28;20028;-77
2023/10/02 10:35:30;;;;;;;17.05;8.77;;;;;;;-148.88;84.76;-17125.47;5036837;28;20037;-77
2023/10/02 10:37:56;;;;;;;14.90;8.57;;;;;;;-148.88;85.74;-17125.47;5037500;28;20111;-77
2023/10/02 10:40:59;;;;;;;17.80;9.40;;;;;;;-148.88;85.95;-17125.47;5037230;28;20055;-77
2023/10/02 10:43:43;;;;;;;20.20;8.88;;;;;;;-148.88;85.73;-17125.47;5036927;28;20026;-77
2023/10/02 10:46:22;;;;;;;18.02;8.80;;;;;;;-148.88;86.69;-17125.47;5037283;28;20018;-77
2023/10/02 10:48:59;;;;;;;17.83;9.27;;;;;;;-148.88;84.14;-17125.47;5037796;28;20029;-77
2023/10/02 10:51:28;;;;;;;18.42;9.43;;;;;;;-148.88;82.33;-17125.47;5036048;28;20481;-78
2023/10/02 10:54:12;;;;;;;16.67;8.55;;;;;;;-148.88;81.78;-17125.47;5035771;28;20493;-77
2023/10/02 10:56:44;;;;;;;14.20;8.18;;;;;;;-148.88;82.10;-17125.47;5035919;28;20041;-77
2023/10/02 10:59:24;;;;;;;16.13;8.85;;;;;;;-148.88;79.20;-17125.47;5036576;28;20375;-77
2023/10/02 11:02:09;;;;;;;18.35;8.85;;;;;;;-148.88;79.23;-17125.47;5036119;28;20025;-77
2023/10/02 11:04:40;;;;;;;17.88;8.98;;;;;;;-148.88;81.06;-17125.47;5036308;28;20021;-77
2023/10/02 11:07:29;;;;;;;15.98;8.25;;;;;;;-148.88;81.36;-17125.47;5036965;28;20394;-77
2023/10/02 11:12:54;;;;;;;19.55;9.30;;;;;;;-148.88;81.83;-17125.47;5036962;28;20071;-77
2023/10/02 11:18:18;;;;;;;18.70;8.40;;;;;;;-148.88;81.83;-17125.47;5037729;28;20024;-77
2023/10/02 11:20:49;;;;;;;15.82;8.35;;;;;;;-148.88;84.51;-17125.47;5037629;28;20017;-77
2023/10/02 11:23:30;;;;;;;17.42;8.80;;;;;;;-148.88;83.24;-17125.47;5037499;28;20017;-77
2023/10/02 11:25:58;;;;;;;16.90;8.38;;;;;;;-148.88;82.46;-17125.47;5037294;28;20045;-77
2023/10/02 11:28:31;;;;;;;17.20;8.63;;;;;;;-148.88;81.84;-17125.47;5035468;28;20030;-77
2023/10/02 11:31:30;;;;;;;17.15;8.50;;;;;;;-148.88;81.30;-17125.47;5036387;28;20079;-77
2023/10/02 11:34:00;;;;;;;19.27;9.02;;;;;;;-148.88;82.44;-17125.47;5035678;28;20033;-77
2023/10/02 11:36:28;;;;;;;16.15;8.60;;;;;;;-148.88;83.25;-17125.47;5036894;28;20025;-77
2023/10/02 11:38:55;;;;;;;15.45;8.85;;;;;;;-148.88;84.03;-17125.47;5035226;28;20048;-77
2023/10/02 11:41:21;;;;;;;17.08;8.00;;;;;;;-148.88;85.34;-17125.47;5035959;28;20025;-77
2023/10/02 11:43:46;;;;;;;19.35;9.20;;;;;;;-148.88;84.67;-17125.47;5036065;28;20041;-77
2023/10/02 11:46:12;;;;;;;19.92;9.27;;;;;;;-148.88;87.01;-17125.47;5035999;28;20024;-77
2023/10/02 11:48:38;;;;;;;14.38;7.75;;;;;;;-148.88;85.41;-17125.47;5036179;28;20120;-77
2023/10/02 11:51:03;;;;;;;16.38;8.95;;;;;;;-148.88;84.68;-17125.47;5036588;28;20045;-77
2023/10/02 11:53:29;;;;;;;15.73;8.48;;;;;;;-148.88;85.90;-17125.47;5034974;28;20049;-77
2023/10/02 11:55:54;;;;;;;16.33;8.45;;;;;;;-148.88;84.30;-17125.47;5036076;28;20136;-77
2023/10/02 11:58:19;;;;;;;15.38;8.25;;;;;;;-148.88;85.28;-17125.47;5035385;28;20049;-77
2023/10/02 12:00:45;;;;;;;20.25;8.43;;;;;;;-148.88;86.38;-17125.47;5036860;28;20029;-77
2023/10/02 12:03:10;;;;;;;17.17;8.10;;;;;;;-148.88;86.95;-17125.47;5036802;28;20033;-77
2023/10/02 12:05:36;;;;;;;17.25;8.63;;;;;;;-148.88;85.98;-17125.47;5036791;28;20026;-77
2023/10/02 12:08:03;;;;;;;16.75;8.52;;;;;;;-148.88;86.86;-17125.47;5036378;28;20021;-77
2023/10/02 12:10:30;;;;;;;15.73;7.85;;;;;;;-148.88;87.13;-17125.47;5036689;28;20029;-77
2023/10/02 12:12:55;;;;;;;14.90;8.25;;;;;;;-148.88;87.10;-17125.47;5036545;28;20037;-77